createdAt,value
2023-03-24T00:01:22.993Z,96735.59
2023-03-24T00:03:52.306Z,96730.22
2023-03-24T00:06:22.508Z,96722.97
2023-03-24T00:08:50.442Z,96723.19
2023-03-24T00:11:19.456Z,96713.50
2023-03-24T00:13:50.008Z,96723.19
2023-03-24T00:16:19.730Z,96711.59
2023-03-24T00:18:52.766Z,96713.94
2023-03-24T00:21:23.526Z,96715.38
2023-03-24T00:23:58.189Z,96710.31
2023-03-24T00:26:26.201Z,96698.75
2023-03-24T00:28:54.864Z,96698.53
2023-03-24T00:31:24.244Z,96709.50
2023-03-24T00:33:52.182Z,96697.94
2023-03-24T00:36:23.139Z,96690.69
2023-03-24T00:38:51.573Z,96689.66
2023-03-24T00:41:20.569Z,96691.16
2023-03-24T00:43:50.029Z,96687.25
2023-03-24T00:46:27.613Z,96687.41
2023-03-24T00:49:05.765Z,96680.97
2023-03-24T00:51:40.166Z,96678.50
2023-03-24T00:54:12.557Z,96669.03
2023-03-24T00:56:41.504Z,96669.03
2023-03-24T00:59:10.254Z,96661.78
2023-03-24T01:01:41.138Z,96654.31
2023-03-24T01:04:10.416Z,96661.56
2023-03-24T01:06:39.540Z,96649.38
2023-03-24T01:09:07.807Z,96639.44
2023-03-24T01:11:41.165Z,96630.53
2023-03-24T01:14:11.124Z,96629.50
2023-03-24T01:16:39.232Z,96623.91
2023-03-24T01:19:09.309Z,96618.50
2023-03-24T01:21:38.987Z,96618.25
2023-03-24T01:24:06.755Z,96611.84
2023-03-24T01:26:34.739Z,96621.53
2023-03-24T01:29:02.538Z,96614.53
2023-03-24T01:31:30.091Z,96620.97
2023-03-24T01:33:57.736Z,96609.97
2023-03-24T01:36:25.642Z,96608.22
2023-03-24T01:38:53.400Z,96604.16
2023-03-24T01:41:21.328Z,96606.47
2023-03-24T01:43:48.956Z,96600.72
2023-03-24T01:46:23.053Z,96594.91
2023-03-24T01:48:59.825Z,96595.00
2023-03-24T01:51:41.885Z,96593.59
2023-03-24T01:54:40.579Z,96584.34
2023-03-24T01:57:20.695Z,96585.50
2023-03-24T01:59:53.741Z,96591.91
2023-03-24T02:02:54.626Z,96591.09
2023-03-24T02:05:29.575Z,96586.91
2023-03-24T02:08:16.206Z,96576.03
2023-03-24T02:10:45.123Z,96576.84
2023-03-24T02:13:13.166Z,96579.06
2023-03-24T02:16:19.764Z,96580.81
2023-03-24T02:20:05.724Z,96570.66
2023-03-24T02:23:04.335Z,96571.59
2023-03-24T02:25:49.438Z,96565.13
2023-03-24T02:29:22.087Z,96569.41
2023-03-24T02:32:24.598Z,96570.94
2023-03-24T02:35:26.337Z,96565.44
2023-03-24T02:38:21.523Z,96573.72
2023-03-24T02:41:19.175Z,96565.44
2023-03-24T02:44:22.798Z,96562.75
2023-03-24T02:47:07.568Z,96566.13
2023-03-24T02:50:01.322Z,96556.66
2023-03-24T02:52:53.219Z,96562.06
2023-03-24T02:55:36.108Z,96564.97
2023-03-24T02:58:12.397Z,96566.38
2023-03-24T03:00:59.492Z,96546.13
2023-03-24T03:04:14.343Z,96550.38
2023-03-24T03:06:49.350Z,96547.25
2023-03-24T03:09:21.348Z,96545.72
2023-03-24T03:11:53.573Z,96539.06
2023-03-24T03:14:48.234Z,96542.56
2023-03-24T03:17:30.463Z,96541.06
2023-03-24T03:20:07.894Z,96538.13
2023-03-24T03:23:07.457Z,96536.03
2023-03-24T03:25:42.204Z,96518.03
2023-03-24T03:28:11.913Z,96509.38
2023-03-24T03:30:47.598Z,96505.75
2023-03-24T03:33:27.510Z,96508.81
2023-03-24T03:36:07.371Z,96511.25
2023-03-24T03:38:58.604Z,96523.06
2023-03-24T03:41:26.847Z,96529.97
2023-03-24T03:43:55.304Z,96533.34
2023-03-24T03:46:23.383Z,96538.59
2023-03-24T03:48:51.470Z,96532.88
2023-03-24T03:51:19.999Z,96537.06
2023-03-24T03:54:01.176Z,96535.19
2023-03-24T03:56:33.998Z,96541.28
2023-03-24T03:59:44.193Z,96538.81
2023-03-24T04:02:52.584Z,96538.56
2023-03-24T04:05:33.284Z,96533.16
2023-03-24T04:08:51.323Z,96529.19
2023-03-24T04:11:46.301Z,96530.16
2023-03-24T04:14:51.378Z,96526.31
2023-03-24T04:18:16.932Z,96531.22
2023-03-24T04:21:33.599Z,96529.59
2023-03-24T04:24:51.886Z,96530.53
2023-03-24T04:28:01.936Z,96539.19
2023-03-24T04:30:46.071Z,96536.94
2023-03-24T04:33:52.414Z,96530.19
2023-03-24T04:36:31.708Z,96532.16
2023-03-24T04:39:38.854Z,96529.03
2023-03-24T04:42:26.535Z,96529.47
2023-03-24T04:44:57.664Z,96542.09
2023-03-24T04:47:56.987Z,96541.88
2023-03-24T04:50:58.783Z,96545.59
2023-03-24T04:53:29.243Z,96553.31
2023-03-24T04:56:28.396Z,96552.06
2023-03-24T04:59:04.303Z,96554.84
2023-03-24T05:01:32.697Z,96572.66
2023-03-24T05:04:37.248Z,96601.03
2023-03-24T05:07:21.381Z,96619.44
2023-03-24T05:09:52.298Z,96646.31
2023-03-24T05:12:19.854Z,96667.44
2023-03-24T05:15:07.740Z,96677.31
2023-03-24T05:17:36.613Z,96678.19
2023-03-24T05:20:12.358Z,96689.59
2023-03-24T05:22:43.561Z,96680.63
2023-03-24T05:25:11.436Z,96676.22
2023-03-24T05:27:39.134Z,96668.66
2023-03-24T05:30:20.166Z,96681.28
2023-03-24T05:32:49.095Z,96658.75
2023-03-24T05:35:16.832Z,96660.19
2023-03-24T05:37:44.522Z,96658.53
2023-03-24T05:40:12.971Z,96670.94
2023-03-24T05:42:51.686Z,96680.22
2023-03-24T05:45:20.240Z,96683.28
2023-03-24T05:47:48.373Z,96684.72
2023-03-24T05:50:19.760Z,96685.34
2023-03-24T05:52:47.978Z,96686.97
2023-03-24T05:55:36.040Z,96674.13
2023-03-24T05:58:15.668Z,96676.00
2023-03-24T06:00:49.984Z,96675.19
2023-03-24T06:03:34.090Z,96683.84
2023-03-24T06:06:08.714Z,96680.78
2023-03-24T06:08:38.367Z,96679.59
2023-03-24T06:11:06.656Z,96678.13
2023-03-24T06:13:43.956Z,96682.88
2023-03-24T06:16:11.583Z,96677.03
2023-03-24T06:18:53.025Z,96666.66
2023-03-24T06:21:38.952Z,96659.66
2023-03-24T06:24:06.958Z,96664.78
2023-03-24T06:26:36.394Z,96655.28
2023-03-24T06:29:04.698Z,96665.56
2023-03-24T06:31:37.440Z,96669.44
2023-03-24T06:34:06.366Z,96659.28
2023-03-24T06:36:34.688Z,96669.81
2023-03-24T06:39:04.364Z,96663.84
2023-03-24T06:41:32.389Z,96664.44
2023-03-24T06:44:01.931Z,96668.78
2023-03-24T06:46:29.627Z,96664.00
2023-03-24T06:48:57.297Z,96668.31
2023-03-24T06:51:25.203Z,96677.22
2023-03-24T06:53:53.078Z,96671.38
2023-03-24T06:56:23.341Z,96680.84
2023-03-24T06:58:57.829Z,96682.09
2023-03-24T07:01:30.146Z,96678.13
2023-03-24T07:04:06.287Z,96681.03
2023-03-24T07:07:08.577Z,96694.84
2023-03-24T07:09:44.638Z,96698.56
2023-03-24T07:12:14.656Z,96700.00
2023-03-24T07:14:42.867Z,96697.53
2023-03-24T07:17:10.675Z,96701.25
2023-03-24T07:19:45.714Z,96706.41
2023-03-24T07:22:48.211Z,96713.25
2023-03-24T07:25:25.596Z,96714.72
2023-03-24T07:27:59.848Z,96711.66
2023-03-24T07:30:39.391Z,96713.09
2023-03-24T07:33:12.467Z,96714.00
2023-03-24T07:35:42.925Z,96721.69
2023-03-24T07:38:11.734Z,96722.97
2023-03-24T07:40:39.681Z,96719.28
2023-03-24T07:43:07.254Z,96723.09
2023-03-24T07:45:55.206Z,96725.78
2023-03-24T07:48:22.822Z,96723.09
2023-03-24T07:50:54.052Z,96730.34
2023-03-24T07:53:47.664Z,96740.25
2023-03-24T07:56:22.513Z,96739.81
2023-03-24T07:58:56.926Z,96747.25
2023-03-24T08:01:45.023Z,96743.00
2023-03-24T08:04:14.919Z,96750.03
2023-03-24T08:07:03.005Z,96745.25
2023-03-24T08:09:30.650Z,96737.63
2023-03-24T08:12:00.575Z,96730.16
2023-03-24T08:14:34.616Z,96700.78
2023-03-24T08:17:02.335Z,96676.81
2023-03-24T08:19:29.944Z,96658.16
2023-03-24T08:21:57.474Z,96671.75
2023-03-24T08:24:25.495Z,96655.41
2023-03-24T08:26:53.545Z,96630.31
2023-03-24T08:29:21.165Z,96614.94
2023-03-24T08:31:48.737Z,96571.72
2023-03-24T08:34:16.245Z,96635.16
2023-03-24T08:36:43.767Z,96638.69
2023-03-24T08:39:11.292Z,96631.03
2023-03-24T08:41:38.854Z,96659.91
2023-03-24T08:44:07.475Z,96664.84
2023-03-24T08:46:35.401Z,96665.06
2023-03-24T08:49:03.997Z,96686.34
2023-03-24T08:51:32.544Z,96687.38
2023-03-24T08:54:01.430Z,96695.44
2023-03-24T08:56:29.258Z,96709.13
2023-03-24T08:58:57.907Z,96702.63
2023-03-24T09:01:25.629Z,96700.31
2023-03-24T09:03:53.376Z,96700.59
2023-03-24T09:06:21.422Z,96688.69
2023-03-24T09:08:48.938Z,96695.41
2023-03-24T09:11:20.932Z,96701.50
2023-03-24T09:13:49.345Z,96700.56
2023-03-24T09:16:17.879Z,96701.59
2023-03-24T09:18:46.333Z,96694.81
2023-03-24T09:21:14.259Z,96694.56
2023-03-24T09:23:42.492Z,96704.25
2023-03-24T09:26:10.127Z,96691.03
2023-03-24T09:28:37.822Z,96706.13
2023-03-24T09:31:06.447Z,96705.38
2023-03-24T09:33:34.934Z,96701.00
2023-03-24T09:36:05.021Z,96701.22
2023-03-24T09:38:34.910Z,96700.44
2023-03-24T09:41:03.587Z,96694.47
2023-03-24T09:43:42.387Z,96697.78
2023-03-24T09:46:24.716Z,96699.78
2023-03-24T09:48:57.441Z,96679.78
2023-03-24T09:51:27.904Z,96697.88
2023-03-24T09:54:27.260Z,96717.03
2023-03-24T09:56:57.235Z,96700.13
2023-03-24T09:59:39.625Z,96683.84
2023-03-24T10:02:20.140Z,96686.69
2023-03-24T10:04:48.892Z,96691.88
2023-03-24T10:07:40.307Z,96692.81
2023-03-24T10:10:31.992Z,96690.91
2023-03-24T10:13:11.890Z,96709.56
2023-03-24T10:15:52.064Z,96699.47
2023-03-24T10:18:34.131Z,96698.66
2023-03-24T10:21:17.878Z,96701.69
2023-03-24T10:24:18.608Z,96700.06
2023-03-24T10:27:22.848Z,96706.63
2023-03-24T10:30:00.914Z,96702.28
2023-03-24T10:32:32.867Z,96699.81
2023-03-24T10:35:09.397Z,96722.69
2023-03-24T10:37:37.769Z,96710.72
2023-03-24T10:40:25.037Z,96701.47
2023-03-24T10:43:06.423Z,96701.00
2023-03-24T10:45:40.870Z,96709.91
2023-03-24T10:48:09.491Z,96715.41
2023-03-24T10:50:44.143Z,96717.63
2023-03-24T10:53:20.941Z,96716.00
2023-03-24T10:55:48.970Z,96720.81
2023-03-24T10:58:43.294Z,96725.75
2023-03-24T11:01:26.108Z,96719.97
2023-03-24T11:04:01.188Z,96732.06
2023-03-24T11:06:29.130Z,96722.59
2023-03-24T11:09:20.010Z,96719.03
2023-03-24T11:11:47.844Z,96711.41
2023-03-24T11:14:25.416Z,96708.31
2023-03-24T11:17:17.418Z,96719.31
2023-03-24T11:19:53.569Z,96721.81
2023-03-24T11:22:21.774Z,96735.63
2023-03-24T11:24:52.659Z,96731.00
2023-03-24T11:27:20.426Z,96738.97
2023-03-24T11:29:54.594Z,96735.50
2023-03-24T11:32:27.877Z,96743.41
2023-03-24T11:35:07.759Z,96736.41
2023-03-24T11:37:37.329Z,96742.25
2023-03-24T11:40:20.631Z,96745.31
2023-03-24T11:42:57.381Z,96746.13
2023-03-24T11:45:39.189Z,96754.44
2023-03-24T11:48:45.508Z,96746.00
2023-03-24T11:51:23.503Z,96745.78
2023-03-24T11:53:53.765Z,96758.56
2023-03-24T11:56:43.090Z,96744.81
2023-03-24T11:59:49.435Z,96755.72
2023-03-24T12:02:47.969Z,96750.56
2023-03-24T12:05:42.250Z,96758.38
2023-03-24T12:08:27.099Z,96744.59
2023-03-24T12:11:08.112Z,96745.19
2023-03-24T12:13:51.523Z,96741.31
2023-03-24T12:16:40.862Z,96736.72
2023-03-24T12:19:26.561Z,96725.72
2023-03-24T12:22:38.548Z,96725.00
2023-03-24T12:25:58.794Z,96733.69
2023-03-24T12:28:58.378Z,96735.22
2023-03-24T12:31:56.890Z,96741.91
2023-03-24T12:34:55.967Z,96746.09
2023-03-24T12:37:59.764Z,96734.84
2023-03-24T12:41:05.789Z,96740.16
2023-03-24T12:44:27.566Z,96752.53
2023-03-24T12:47:04.173Z,96744.31
2023-03-24T12:49:50.586Z,96737.91
2023-03-24T12:53:07.790Z,96741.03
2023-03-24T12:55:43.484Z,96755.59
2023-03-24T12:58:26.804Z,96765.03
2023-03-24T13:01:32.866Z,96782.38
2023-03-24T13:04:12.823Z,96775.28
2023-03-24T13:06:59.179Z,96769.25
2023-03-24T13:09:55.691Z,96782.84
2023-03-24T13:12:42.140Z,96787.09
2023-03-24T13:15:09.895Z,96786.78
2023-03-24T13:18:11.633Z,96788.75
2023-03-24T13:20:54.070Z,96790.75
2023-03-24T13:23:21.890Z,96793.00
2023-03-24T13:26:11.740Z,96782.34
2023-03-24T13:28:59.080Z,96787.22
2023-03-24T13:31:31.426Z,96799.84
2023-03-24T13:34:00.375Z,96809.72
2023-03-24T13:37:11.811Z,96810.66
2023-03-24T13:39:39.723Z,96795.56
2023-03-24T13:42:07.734Z,96806.53
2023-03-24T13:44:44.309Z,96796.88
2023-03-24T13:47:17.704Z,96806.97
2023-03-24T13:50:01.273Z,96793.56
2023-03-24T13:52:40.074Z,96794.97
2023-03-24T13:55:34.504Z,96802.88
2023-03-24T13:58:19.136Z,96812.31
2023-03-24T14:01:31.521Z,96806.56
2023-03-24T14:04:48.434Z,96797.91
2023-03-24T14:07:39.621Z,96804.47
2023-03-24T14:10:16.505Z,96795.56
2023-03-24T14:12:58.891Z,96807.53
2023-03-24T14:15:50.569Z,96794.59
2023-03-24T14:18:24.797Z,96796.28
2023-03-24T14:21:02.509Z,96796.28
2023-03-24T14:23:39.140Z,96799.16
2023-03-24T14:26:21.268Z,96802.66
2023-03-24T14:28:57.160Z,96802.44
2023-03-24T14:31:33.750Z,96790.69
2023-03-24T14:34:15.435Z,96792.13
2023-03-24T14:36:45.339Z,96809.06
2023-03-24T14:39:31.756Z,96785.94
2023-03-24T14:41:59.736Z,96788.81
2023-03-24T14:44:55.261Z,96784.44
2023-03-24T14:47:43.398Z,96787.50
2023-03-24T14:50:19.665Z,96784.38
2023-03-24T14:52:54.894Z,96795.88
2023-03-24T14:55:23.216Z,96784.72
2023-03-24T14:58:22.229Z,96795.81
2023-03-24T15:01:06.926Z,96784.22
2023-03-24T15:04:00.791Z,96783.16
2023-03-24T15:06:29.121Z,96770.97
2023-03-24T15:08:59.887Z,96769.53
2023-03-24T15:11:39.519Z,96766.78
2023-03-24T15:14:25.300Z,96761.00
2023-03-24T15:17:04.146Z,96772.16
2023-03-24T15:19:33.894Z,96764.66
2023-03-24T15:22:12.793Z,96757.00
2023-03-24T15:24:47.268Z,96754.00
2023-03-24T15:27:26.512Z,96742.94
2023-03-24T15:29:59.129Z,96737.59
2023-03-24T15:32:32.098Z,96741.84
2023-03-24T15:35:05.570Z,96741.38
2023-03-24T15:37:41.087Z,96747.66
2023-03-24T15:40:27.462Z,96742.84
2023-03-24T15:42:59.122Z,96728.06
2023-03-24T15:45:33.156Z,96737.97
2023-03-24T15:48:18.326Z,96732.44
2023-03-24T15:51:09.186Z,96748.66
2023-03-24T15:53:56.158Z,96748.19
2023-03-24T15:56:32.103Z,96740.56
2023-03-24T15:59:05.485Z,96754.69
2023-03-24T16:01:38.329Z,96757.28
2023-03-24T16:04:14.184Z,96738.16
2023-03-24T16:06:48.649Z,96732.69
2023-03-24T16:09:21.784Z,96741.28
2023-03-24T16:11:49.359Z,96735.59
2023-03-24T16:14:29.689Z,96733.88
2023-03-24T16:17:00.769Z,96744.59
2023-03-24T16:19:28.601Z,96741.16
2023-03-24T16:21:56.491Z,96739.13
2023-03-24T16:24:24.154Z,96743.63
2023-03-24T16:26:51.726Z,96740.69
2023-03-24T16:29:24.064Z,96740.91
2023-03-24T16:31:56.754Z,96742.63
2023-03-24T16:34:24.628Z,96747.19
2023-03-24T16:36:54.936Z,96754.25
2023-03-24T16:39:27.877Z,96748.84
2023-03-24T16:41:56.667Z,96747.16
2023-03-24T16:44:25.096Z,96744.66
2023-03-24T16:46:54.838Z,96743.41
2023-03-24T16:49:24.006Z,96749.25
2023-03-24T16:51:53.768Z,96747.41
2023-03-24T16:54:21.829Z,96754.28
2023-03-24T16:56:49.758Z,96749.97
2023-03-24T16:59:17.428Z,96749.22
2023-03-24T17:01:47.249Z,96753.19
2023-03-24T17:04:22.279Z,96756.56
2023-03-24T17:06:53.423Z,96748.34
2023-03-24T17:09:22.147Z,96748.63
2023-03-24T17:11:55.885Z,96745.41
2023-03-24T17:14:24.065Z,96749.56
2023-03-24T17:16:53.423Z,96746.06
2023-03-24T17:19:23.681Z,96743.06
2023-03-24T17:22:04.751Z,96740.00
2023-03-24T17:24:36.718Z,96746.69
2023-03-24T17:27:14.398Z,96744.88
2023-03-24T17:29:41.908Z,96749.25
2023-03-24T17:32:11.975Z,96756.09
2023-03-24T17:34:41.681Z,96763.38
2023-03-24T17:37:09.194Z,96763.22
2023-03-24T17:39:36.925Z,96763.63
2023-03-24T17:42:04.665Z,96758.09
2023-03-24T17:44:33.686Z,96762.84
2023-03-24T17:47:01.290Z,96764.38
2023-03-24T17:49:28.845Z,96768.94
2023-03-24T17:51:56.357Z,96778.38
2023-03-24T17:54:25.426Z,96785.84
2023-03-24T17:56:52.985Z,96781.31
2023-03-24T17:59:20.578Z,96798.91
2023-03-24T18:01:48.155Z,96791.50
2023-03-24T18:04:15.927Z,96792.72
2023-03-24T18:06:46.152Z,96792.97
2023-03-24T18:09:14.007Z,96795.47
2023-03-24T18:11:41.534Z,96807.03
2023-03-24T18:14:09.214Z,96807.06
2023-03-24T18:16:39.150Z,96811.81
2023-03-24T18:19:07.053Z,96818.66
2023-03-24T18:21:34.589Z,96822.56
2023-03-24T18:24:02.290Z,96820.09
2023-03-24T18:26:30.605Z,96824.63
2023-03-24T18:28:58.193Z,96832.88
2023-03-24T18:31:26.086Z,96821.78
2023-03-24T18:33:55.178Z,96829.41
2023-03-24T18:36:26.226Z,96832.69
2023-03-24T18:39:01.829Z,96831.06
2023-03-24T18:41:30.412Z,96833.53
2023-03-24T18:43:59.514Z,96837.25
2023-03-24T18:46:27.505Z,96842.00
2023-03-24T18:48:55.474Z,96839.31
2023-03-24T18:51:25.525Z,96845.09
2023-03-24T18:53:53.452Z,96835.63
2023-03-24T18:56:23.273Z,96837.25
2023-03-24T18:58:52.352Z,96830.28
2023-03-24T19:01:26.102Z,96834.81
2023-03-24T19:03:53.808Z,96833.97
2023-03-24T19:06:22.102Z,96834.59
2023-03-24T19:08:51.984Z,96831.72
2023-03-24T19:11:20.076Z,96837.25
2023-03-24T19:13:50.480Z,96833.72
2023-03-24T19:16:20.384Z,96839.94
2023-03-24T19:18:50.327Z,96838.47
2023-03-24T19:21:19.591Z,96842.16
2023-03-24T19:23:47.139Z,96847.13
2023-03-24T19:26:19.992Z,96850.44
2023-03-24T19:28:47.528Z,96843.22
2023-03-24T19:31:18.476Z,96853.72
2023-03-24T19:33:47.337Z,96846.91
2023-03-24T19:36:15.844Z,96856.78
2023-03-24T19:38:44.102Z,96860.91
2023-03-24T19:41:14.292Z,96862.94
2023-03-24T19:43:41.890Z,96859.84
2023-03-24T19:46:09.479Z,96862.53
2023-03-24T19:48:37.331Z,96864.16
2023-03-24T19:51:05.343Z,96862.72
2023-03-24T19:53:33.023Z,96863.78
2023-03-24T19:56:01.280Z,96872.19
2023-03-24T19:58:29.112Z,96862.94
2023-03-24T20:00:57.011Z,96862.72
2023-03-24T20:03:25.800Z,96874.44
2023-03-24T20:05:53.453Z,96858.38
2023-03-24T20:08:21.596Z,96860.63
2023-03-24T20:10:49.138Z,96862.91
2023-03-24T20:13:16.656Z,96862.72
2023-03-24T20:15:46.638Z,96866.22
2023-03-24T20:18:14.354Z,96870.72
2023-03-24T20:20:42.485Z,96867.22
2023-03-24T20:23:10.505Z,96885.13
2023-03-24T20:25:42.584Z,96874.44
2023-03-24T20:28:10.417Z,96876.69
2023-03-24T20:30:39.879Z,96880.19
2023-03-24T20:33:07.758Z,96868.03
2023-03-24T20:35:36.491Z,96873.81
2023-03-24T20:38:04.316Z,96868.28
2023-03-24T20:40:31.890Z,96864.34
2023-03-24T20:42:59.901Z,96864.78
2023-03-24T20:45:27.483Z,96858.81
2023-03-24T20:47:55.376Z,96876.91
2023-03-24T20:50:23.020Z,96869.09
2023-03-24T20:52:51.114Z,96865.75
2023-03-24T20:55:18.685Z,96859.38
2023-03-24T20:57:47.427Z,96865.97
2023-03-24T21:00:15.563Z,96875.81
2023-03-24T21:02:43.751Z,96869.66
2023-03-24T21:05:11.685Z,96870.47
2023-03-24T21:07:43.494Z,96879.50
2023-03-24T21:10:11.419Z,96878.31
2023-03-24T21:12:53.053Z,96886.31
2023-03-24T21:15:24.896Z,96881.97
2023-03-24T21:17:53.349Z,96887.72
2023-03-24T21:20:21.598Z,96884.59
2023-03-24T21:22:55.549Z,96885.84
2023-03-24T21:25:27.450Z,96892.63
2023-03-24T21:27:55.938Z,96893.84
2023-03-24T21:30:25.929Z,96891.81
2023-03-24T21:32:56.633Z,96890.81
2023-03-24T21:35:24.951Z,96888.56
2023-03-24T21:37:53.664Z,96885.91
2023-03-24T21:40:25.363Z,96886.47
2023-03-24T21:42:55.771Z,96899.63
2023-03-24T21:45:23.874Z,96892.81
2023-03-24T21:47:54.819Z,96896.91
2023-03-24T21:50:23.217Z,96889.94
2023-03-24T21:52:54.729Z,96900.63
2023-03-24T21:55:23.252Z,96894.84
2023-03-24T21:57:51.868Z,96901.22
2023-03-24T22:00:23.916Z,96902.44
2023-03-24T22:02:54.070Z,96899.38
2023-03-24T22:05:27.867Z,96887.84
2023-03-24T22:07:55.886Z,96892.41
2023-03-24T22:10:23.404Z,96885.03
2023-03-24T22:12:53.176Z,96883.47
2023-03-24T22:15:21.729Z,96879.63
2023-03-24T22:17:50.281Z,96888.31
2023-03-24T22:20:18.193Z,96888.13
2023-03-24T22:22:46.234Z,96891.19
2023-03-24T22:25:17.944Z,96899.44
2023-03-24T22:27:49.444Z,96899.22
2023-03-24T22:30:18.998Z,96908.91
2023-03-24T22:32:46.571Z,96903.38
2023-03-24T22:35:14.648Z,96910.16
2023-03-24T22:37:42.574Z,96915.50
2023-03-24T22:40:10.459Z,96919.00
2023-03-24T22:42:38.395Z,96921.88
2023-03-24T22:45:06.786Z,96937.53
2023-03-24T22:47:34.384Z,96928.44
2023-03-24T22:50:02.323Z,96947.09
2023-03-24T22:52:30.465Z,96950.22
2023-03-24T22:54:58.028Z,96970.16
2023-03-24T22:57:25.582Z,96985.22
2023-03-24T22:59:53.179Z,96994.81
2023-03-24T23:02:24.399Z,97002.91
2023-03-24T23:04:52.183Z,97004.03
2023-03-24T23:07:22.665Z,97000.88
2023-03-24T23:09:50.336Z,96964.09
2023-03-24T23:12:17.929Z,96962.59
2023-03-24T23:14:46.357Z,96953.25
2023-03-24T23:17:15.725Z,96969.09
2023-03-24T23:19:43.507Z,96969.66
2023-03-24T23:22:11.195Z,96967.13
2023-03-24T23:24:39.281Z,96962.47
2023-03-24T23:27:07.074Z,96954.56
2023-03-24T23:29:37.668Z,96971.41
2023-03-24T23:32:06.214Z,96957.44
2023-03-24T23:34:34.806Z,96967.16
2023-03-24T23:37:04.955Z,96960.19
2023-03-24T23:39:33.951Z,96974.66
2023-03-24T23:42:01.448Z,96986.16
2023-03-24T23:44:28.985Z,96988.94
2023-03-24T23:46:56.686Z,96985.19
2023-03-24T23:49:24.312Z,96982.00
2023-03-24T23:51:51.875Z,96984.56
2023-03-24T23:54:19.531Z,96956.59
2023-03-24T23:56:47.150Z,96961.16
2023-03-24T23:59:14.858Z,96962.69
